Time;durP1;ratioP1;P1;durP2;ratioP2;P2;SDS_P1;SDS_P2;PMS_P1;PMS_P2;Temp;Humidity;BMP_temperature;BMP_pressure;BME280_temperature;BME280_humidity;BME280_pressure;Samples;Min_cycle;Max_cycle;Signal;HPM_P1;HPM_P2
2021/08/13 00:00:13;;;;;;;7.25;6.45;;;18.70;99.90;;;;;;5033700;28;20044;-78
2021/08/13 00:02:40;;;;;;;7.10;6.40;;;18.70;99.90;;;;;;5085540;28;20390;-81
2021/08/13 00:05:08;;;;;;;8.20;5.97;;;18.60;99.90;;;;;;5033634;28;20059;-80
2021/08/13 00:07:34;;;;;;;7.53;6.72;;;18.60;99.90;;;;;;5069926;28;20052;-81
2021/08/13 00:10:02;;;;;;;7.55;5.63;;;18.60;99.90;;;;;;5052670;28;20502;-81
2021/08/13 00:12:30;;;;;;;5.82;4.57;;;18.60;99.90;;;;;;5070577;28;20042;-81
2021/08/13 00:14:57;;;;;;;8.07;5.57;;;18.60;99.90;;;;;;5091764;28;20044;-80
2021/08/13 00:17:24;;;;;;;6.95;5.47;;;18.60;99.90;;;;;;5051827;28;20043;-80
2021/08/13 00:19:50;;;;;;;7.97;5.32;;;18.60;99.90;;;;;;5036511;28;20056;-81
2021/08/13 00:22:17;;;;;;;6.40;4.55;;;18.70;99.90;;;;;;5072786;28;20051;-80
2021/08/13 00:24:44;;;;;;;5.25;4.43;;;18.60;99.90;;;;;;5070209;28;20080;-81
2021/08/13 00:27:11;;;;;;;6.30;4.63;;;18.60;99.90;;;;;;5053462;28;20043;-81
2021/08/13 00:29:37;;;;;;;5.00;4.50;;;18.60;99.90;;;;;;5069821;28;20101;-81
2021/08/13 00:32:13;;;;;;;8.35;5.30;;;18.50;99.90;;;;;;5053995;28;20043;-81
2021/08/13 00:34:41;;;;;;;6.93;4.72;;;18.50;99.90;;;;;;5055889;28;20050;-80
2021/08/13 00:37:08;;;;;;;6.75;5.15;;;18.50;99.90;;;;;;5070093;28;20043;-81
2021/08/13 00:39:35;;;;;;;5.20;4.63;;;18.40;99.90;;;;;;5070213;28;20797;-81
2021/08/13 00:42:03;;;;;;;6.43;5.05;;;18.40;99.90;;;;;;5072729;28;20406;-80
2021/08/13 00:44:31;;;;;;;6.78;4.72;;;18.30;99.90;;;;;;5037602;28;20043;-79
2021/08/13 00:47:01;;;;;;;7.50;5.05;;;18.30;99.90;;;;;;5068191;28;20069;-78
2021/08/13 00:49:39;;;;;;;5.03;4.13;;;18.20;99.90;;;;;;5084552;28;20032;-78
2021/08/13 00:52:15;;;;;;;5.28;4.30;;;18.20;99.90;;;;;;5072303;28;20027;-78
2021/08/13 00:54:44;;;;;;;4.97;4.32;;;18.10;99.90;;;;;;5086712;28;20050;-78
2021/08/13 00:57:11;;;;;;;5.25;4.65;;;18.20;99.90;;;;;;5088037;28;20043;-78
2021/08/13 00:59:56;;;;;;;29.23;22.80;;;18.10;99.90;;;;;;5076895;28;20086;-79
2021/08/13 01:02:33;;;;;;;23.85;18.67;;;18.10;99.90;;;;;;5057159;28;20521;-78
2021/08/13 01:05:09;;;;;;;17.73;14.85;;;18.00;99.90;;;;;;5054389;28;20055;-77
2021/08/13 01:07:36;;;;;;;19.70;15.23;;;18.00;99.90;;;;;;5086278;28;20047;-78
2021/08/13 01:10:05;;;;;;;15.82;12.88;;;18.00;99.90;;;;;;5055456;28;20036;-78
2021/08/13 01:12:46;;;;;;;12.88;10.40;;;18.00;99.90;;;;;;5070102;28;20042;-78
2021/08/13 01:15:15;;;;;;;11.95;8.90;;;18.00;99.90;;;;;;5071329;28;20042;-78
2021/08/13 01:17:50;;;;;;;10.55;8.65;;;18.00;99.90;;;;;;5054948;28;20043;-78
2021/08/13 01:20:46;;;;;;;11.57;8.65;;;18.00;99.90;;;;;;5107478;27;20038;-78
2021/08/13 01:23:24;;;;;;;7.82;6.20;;;18.00;99.90;;;;;;5092831;28;20032;-78
2021/08/13 01:25:56;;;;;;;6.93;5.10;;;17.90;99.90;;;;;;5079497;28;20039;-81
2021/08/13 01:29:07;;;;;;;6.60;5.00;;;18.00;99.90;;;;;;5073570;28;20040;-80
2021/08/13 01:31:47;;;;;;;6.53;5.32;;;18.00;99.90;;;;;;5044384;28;20042;-80
2021/08/13 01:34:18;;;;;;;5.68;4.72;;;18.10;99.90;;;;;;5078474;28;20040;-79
2021/08/13 01:36:47;;;;;;;7.10;4.70;;;18.10;99.90;;;;;;5071483;27;20051;-80
2021/08/13 01:39:15;;;;;;;4.82;4.35;;;18.10;99.90;;;;;;5099949;28;20036;-80
2021/08/13 01:41:43;;;;;;;5.45;4.63;;;18.20;99.90;;;;;;5042747;27;20051;-80
2021/08/13 01:44:13;;;;;;;5.25;4.28;;;18.20;99.90;;;;;;5056269;28;20402;-81
2021/08/13 01:46:42;;;;;;;6.82;5.18;;;18.30;99.90;;;;;;5108823;27;20047;-80
2021/08/13 01:49:11;;;;;;;7.60;5.22;;;18.30;99.90;;;;;;5069737;28;20043;-80
2021/08/13 01:51:37;;;;;;;5.32;4.78;;;18.40;99.90;;;;;;5071174;28;20043;-80
2021/08/13 01:54:06;;;;;;;7.53;5.50;;;18.40;99.90;;;;;;5054846;28;20058;-80
2021/08/13 01:56:36;;;;;;;6.22;4.93;;;18.30;99.90;;;;;;5054899;28;20054;-80
2021/08/13 01:59:04;;;;;;;5.47;4.97;;;18.30;99.90;;;;;;5052412;28;20918;-80
2021/08/13 02:01:33;;;;;;;5.35;4.60;;;18.20;99.90;;;;;;5055501;28;20043;-79
2021/08/13 02:04:01;;;;;;;7.25;5.55;;;18.20;99.90;;;;;;5070441;28;20040;-80
2021/08/13 02:06:33;;;;;;;6.50;4.88;;;18.10;99.90;;;;;;5087756;28;20036;-79
2021/08/13 02:09:04;;;;;;;5.60;4.72;;;18.00;99.90;;;;;;5041876;27;20204;-80
2021/08/13 02:11:39;;;;;;;5.00;4.43;;;18.00;99.90;;;;;;5071069;28;20040;-80
2021/08/13 02:14:08;;;;;;;4.70;4.20;;;17.90;99.90;;;;;;5071973;28;20038;-80
2021/08/13 02:16:37;;;;;;;5.32;4.63;;;17.90;99.90;;;;;;5070533;28;20048;-80
2021/08/13 02:19:12;;;;;;;5.43;4.80;;;17.80;99.90;;;;;;5053800;28;20047;-80
2021/08/13 02:21:43;;;;;;;8.02;4.68;;;17.80;99.90;;;;;;5070528;28;20047;-80
2021/08/13 02:24:10;;;;;;;5.32;4.68;;;17.80;99.90;;;;;;5069529;28;20406;-79
2021/08/13 02:26:37;;;;;;;4.80;4.40;;;17.80;99.90;;;;;;5053487;28;20054;-80
2021/08/13 02:29:05;;;;;;;5.97;4.22;;;17.70;99.90;;;;;;5053342;28;20050;-80
2021/08/13 02:31:31;;;;;;;5.88;4.68;;;17.70;99.90;;;;;;5041961;28;20046;-80
2021/08/13 02:33:59;;;;;;;4.60;4.10;;;17.60;99.90;;;;;;5058030;28;20043;-80
2021/08/13 02:37:16;;;;;;;5.32;4.80;;;17.60;99.90;;;;;;5054837;28;20051;-80
2021/08/13 02:39:50;;;;;;;5.18;4.68;;;17.60;99.90;;;;;;5007595;28;20056;-80
2021/08/13 02:42:33;;;;;;;6.78;4.75;;;17.60;99.90;;;;;;5004990;28;20037;-79
2021/08/13 02:45:02;;;;;;;5.03;4.53;;;17.60;99.90;;;;;;5064548;28;20035;-80
2021/08/13 02:47:31;;;;;;;5.47;4.97;;;17.60;99.90;;;;;;5069246;28;20472;-79
2021/08/13 02:50:04;;;;;;;5.85;4.97;;;17.60;99.90;;;;;;5053849;28;20044;-80
2021/08/13 02:52:46;;;;;;;5.40;4.72;;;17.60;99.90;;;;;;5069199;28;20401;-80
2021/08/13 02:55:16;;;;;;;5.82;5.18;;;17.60;99.90;;;;;;5052866;28;20040;-80
2021/08/13 02:57:47;;;;;;;5.25;4.70;;;17.60;99.90;;;;;;5069316;27;20477;-80
2021/08/13 03:00:15;;;;;;;5.63;4.97;;;17.60;99.90;;;;;;5070663;28;20043;-80
2021/08/13 03:02:50;;;;;;;6.95;5.72;;;17.60;99.90;;;;;;5055189;28;20062;-80
2021/08/13 03:05:21;;;;;;;5.38;4.88;;;17.60;99.90;;;;;;5072520;28;20946;-80
2021/08/13 03:07:53;;;;;;;5.80;4.90;;;17.60;99.90;;;;;;5071367;28;20054;-80
2021/08/13 03:10:20;;;;;;;8.88;5.97;;;17.60;99.90;;;;;;5053542;28;20051;-80
2021/08/13 03:12:49;;;;;;;7.43;6.00;;;17.50;99.90;;;;;;5070441;28;20035;-80
2021/08/13 03:15:17;;;;;;;10.13;6.07;;;17.50;99.90;;;;;;5046035;28;20511;-80
2021/08/13 03:17:44;;;;;;;7.40;6.65;;;17.50;99.90;;;;;;5033708;28;20048;-80
2021/08/13 03:20:11;;;;;;;8.15;7.30;;;17.40;99.90;;;;;;5067360;28;20380;-80
2021/08/13 03:22:51;;;;;;;9.27;6.57;;;17.40;99.90;;;;;;5023783;28;20872;-79
2021/08/13 03:25:18;;;;;;;7.93;7.10;;;17.40;99.90;;;;;;5053221;28;20059;-80
2021/08/13 03:27:45;;;;;;;7.28;6.53;;;17.30;99.90;;;;;;5065640;28;20483;-80
2021/08/13 03:30:13;;;;;;;6.63;5.80;;;17.30;99.90;;;;;;5067573;28;20036;-80
2021/08/13 03:32:41;;;;;;;6.90;6.20;;;17.30;99.90;;;;;;5033987;28;20040;-80
2021/08/13 03:35:09;;;;;;;9.00;6.70;;;17.30;99.90;;;;;;5064856;28;20033;-80
2021/08/13 03:37:36;;;;;;;7.25;6.55;;;17.20;99.90;;;;;;5037351;28;20049;-80
2021/08/13 03:40:04;;;;;;;8.10;6.60;;;17.20;99.90;;;;;;5011896;28;20495;-80
2021/08/13 03:42:33;;;;;;;8.48;7.68;;;17.10;99.90;;;;;;5015861;28;20479;-80
2021/08/13 03:45:00;;;;;;;10.07;7.32;;;17.10;99.90;;;;;;5069440;28;20048;-80
2021/08/13 03:47:26;;;;;;;9.32;6.70;;;17.10;99.90;;;;;;5030733;28;20882;-80
2021/08/13 03:49:53;;;;;;;7.85;7.05;;;17.10;99.90;;;;;;5030778;28;20055;-80
2021/08/13 03:52:20;;;;;;;12.02;8.30;;;17.10;99.90;;;;;;5039282;28;20037;-80
2021/08/13 03:54:48;;;;;;;8.90;7.97;;;17.10;99.90;;;;;;5036083;28;20353;-80
2021/08/13 03:57:16;;;;;;;9.43;8.48;;;17.10;99.90;;;;;;5035287;28;20055;-80
2021/08/13 03:59:43;;;;;;;9.45;8.55;;;17.20;99.90;;;;;;5050132;28;20048;-80
2021/08/13 04:02:09;;;;;;;9.85;8.80;;;17.20;99.90;;;;;;5051630;28;20028;-80
2021/08/13 04:04:38;;;;;;;11.02;8.75;;;17.20;99.90;;;;;;5067019;28;20052;-80
2021/08/13 04:07:04;;;;;;;10.70;8.63;;;17.20;99.90;;;;;;5017289;28;20041;-81
2021/08/13 04:09:31;;;;;;;10.93;8.73;;;17.20;99.90;;;;;;5033783;28;20925;-80
2021/08/13 04:11:58;;;;;;;10.30;9.20;;;17.20;99.90;;;;;;5053151;28;20044;-80
2021/08/13 04:14:28;;;;;;;9.65;8.50;;;17.20;99.90;;;;;;5023628;28;20048;-80
2021/08/13 04:16:56;;;;;;;10.23;8.45;;;17.30;99.90;;;;;;5047795;28;20056;-80
2021/08/13 04:19:23;;;;;;;11.02;8.10;;;17.30;99.90;;;;;;5064892;28;20059;-80
2021/08/13 04:21:50;;;;;;;8.80;7.55;;;17.30;99.90;;;;;;5034663;28;20438;-80
2021/08/13 04:24:16;;;;;;;8.65;7.68;;;17.30;99.90;;;;;;5068704;28;20032;-80
2021/08/13 04:26:43;;;;;;;10.43;7.28;;;17.30;99.90;;;;;;5035908;28;20150;-80
2021/08/13 04:29:09;;;;;;;8.43;6.95;;;17.30;99.90;;;;;;5058972;28;20059;-80
2021/08/13 04:31:35;;;;;;;8.30;7.50;;;17.40;99.90;;;;;;5036644;28;20044;-80
2021/08/13 04:34:02;;;;;;;8.23;7.43;;;17.40;99.90;;;;;;5053546;28;20048;-80
2021/08/13 04:36:29;;;;;;;9.60;7.68;;;17.40;99.90;;;;;;5051720;28;20044;-80
2021/08/13 04:38:55;;;;;;;11.75;8.98;;;17.50;99.90;;;;;;5053684;28;20056;-80
2021/08/13 04:41:23;;;;;;;10.93;9.10;;;17.50;99.90;;;;;;5036682;28;20510;-80
2021/08/13 04:43:50;;;;;;;11.80;8.65;;;17.60;99.90;;;;;;5086728;28;20043;-80
2021/08/13 04:46:18;;;;;;;9.70;8.18;;;17.70;99.90;;;;;;5053260;28;20340;-80
2021/08/13 04:48:44;;;;;;;10.23;8.40;;;17.70;99.90;;;;;;5067866;28;20842;-80
2021/08/13 04:51:11;;;;;;;10.18;7.43;;;17.80;99.90;;;;;;5069066;28;20032;-79
2021/08/13 04:53:39;;;;;;;9.75;7.97;;;17.90;99.90;;;;;;5051166;28;20052;-79
2021/08/13 04:56:06;;;;;;;9.18;8.00;;;17.90;99.90;;;;;;5069226;28;20036;-80
2021/08/13 04:58:35;;;;;;;11.52;9.07;;;17.90;99.90;;;;;;5051379;28;20063;-80
2021/08/13 05:01:03;;;;;;;9.45;8.27;;;17.90;99.90;;;;;;5020642;28;20052;-79
2021/08/13 05:03:29;;;;;;;10.88;9.65;;;17.90;99.90;;;;;;5070341;28;20032;-80
2021/08/13 05:05:56;;;;;;;10.45;9.25;;;18.00;99.90;;;;;;5051667;28;20055;-80
2021/08/13 05:08:23;;;;;;;10.63;9.52;;;18.00;99.90;;;;;;5068478;28;20051;-80
2021/08/13 05:10:51;;;;;;;12.30;9.15;;;18.00;99.90;;;;;;5086436;28;20139;-80
2021/08/13 05:13:19;;;;;;;12.55;10.00;;;18.10;99.90;;;;;;5052711;28;20055;-80
2021/08/13 05:15:45;;;;;;;13.02;10.55;;;18.10;99.90;;;;;;5042205;28;20150;-80
2021/08/13 05:18:12;;;;;;;12.85;10.32;;;18.10;99.90;;;;;;5068227;28;20063;-80
2021/08/13 05:20:39;;;;;;;14.80;11.93;;;18.20;99.90;;;;;;5039751;28;20048;-80
2021/08/13 05:23:07;;;;;;;19.35;15.35;;;18.20;99.90;;;;;;5037350;28;20052;-80
2021/08/13 05:25:34;;;;;;;19.90;15.30;;;18.30;99.90;;;;;;5053273;28;20372;-80
2021/08/13 05:28:02;;;;;;;24.15;18.02;;;18.40;99.90;;;;;;5052814;28;20040;-80
2021/08/13 05:30:31;;;;;;;24.85;19.42;;;18.50;99.90;;;;;;5073333;28;20453;-80
2021/08/13 05:32:57;;;;;;;24.17;17.67;;;18.60;99.90;;;;;;5042218;28;20044;-80
2021/08/13 05:35:24;;;;;;;20.40;15.85;;;18.70;99.90;;;;;;5054763;28;20051;-80
2021/08/13 05:37:58;;;;;;;18.08;13.23;;;18.80;99.90;;;;;;5041171;28;20044;-80
2021/08/13 05:40:24;;;;;;;19.77;14.48;;;18.90;99.90;;;;;;5038525;28;20040;-80
2021/08/13 05:42:51;;;;;;;21.05;14.85;;;19.00;99.90;;;;;;5037745;28;20062;-80
2021/08/13 05:45:18;;;;;;;17.58;12.75;;;19.10;99.90;;;;;;5037457;28;20058;-80
2021/08/13 05:47:44;;;;;;;16.80;13.65;;;19.10;99.90;;;;;;5037107;28;20052;-80
2021/08/13 05:50:15;;;;;;;18.17;12.38;;;19.20;99.90;;;;;;5040790;28;20044;-80
2021/08/13 05:52:42;;;;;;;14.45;11.07;;;19.30;99.90;;;;;;5055856;28;20040;-80
2021/08/13 05:55:09;;;;;;;14.50;11.38;;;19.40;99.90;;;;;;5067507;28;20055;-80
2021/08/13 05:57:38;;;;;;;12.45;10.52;;;19.50;99.90;;;;;;5059939;28;20048;-80
2021/08/13 06:00:06;;;;;;;12.65;8.30;;;19.60;99.90;;;;;;5050998;28;20048;-80
2021/08/13 06:02:52;;;;;;;11.02;7.78;;;19.70;99.90;;;;;;5088169;28;20059;-80
2021/08/13 06:05:20;;;;;;;10.48;7.97;;;19.80;99.90;;;;;;5051850;28;20043;-79
2021/08/13 06:07:48;;;;;;;7.88;6.47;;;19.90;99.90;;;;;;5068792;28;20032;-78
2021/08/13 06:10:15;;;;;;;8.38;6.30;;;20.00;99.90;;;;;;5087224;28;20491;-79
2021/08/13 06:12:42;;;;;;;7.32;5.65;;;20.00;99.90;;;;;;5047370;28;20044;-79
2021/08/13 06:15:09;;;;;;;7.95;5.47;;;20.10;99.90;;;;;;5074609;28;20049;-77
2021/08/13 06:17:43;;;;;;;7.05;5.20;;;20.10;99.90;;;;;;5055308;28;20529;-78
2021/08/13 06:20:11;;;;;;;9.20;5.07;;;20.20;99.90;;;;;;5092080;27;20039;-76
2021/08/13 06:22:39;;;;;;;7.13;5.43;;;20.30;99.90;;;;;;5093259;28;20690;-75
2021/08/13 06:25:06;;;;;;;6.28;4.60;;;20.30;99.90;;;;;;5071565;28;20070;-77
2021/08/13 06:27:33;;;;;;;7.22;5.68;;;20.30;99.90;;;;;;5069024;28;20035;-76
2021/08/13 06:30:00;;;;;;;8.05;6.05;;;20.40;99.90;;;;;;5070164;28;20036;-76
2021/08/13 06:32:27;;;;;;;7.40;5.60;;;20.40;99.90;;;;;;5086697;28;20410;-77
2021/08/13 06:34:54;;;;;;;7.43;5.22;;;20.50;99.90;;;;;;5068899;28;20036;-76
2021/08/13 06:37:21;;;;;;;7.13;4.72;;;20.50;99.90;;;;;;5067711;27;20050;-78
2021/08/13 06:39:48;;;;;;;7.20;4.75;;;20.60;99.90;;;;;;5069709;28;20517;-76
2021/08/13 06:42:14;;;;;;;7.38;5.50;;;20.60;99.90;;;;;;5019825;28;20044;-77
2021/08/13 06:45:09;;;;;;;7.57;6.15;;;20.70;99.90;;;;;;5081341;28;20150;-76
2021/08/13 06:47:36;;;;;;;9.77;7.30;;;20.70;99.90;;;;;;5064086;28;20044;-77
2021/08/13 06:50:03;;;;;;;9.30;8.13;;;20.80;99.90;;;;;;5085546;28;20039;-77
2021/08/13 06:52:31;;;;;;;10.07;7.45;;;20.80;99.90;;;;;;5069023;28;20031;-78
2021/08/13 06:54:57;;;;;;;9.23;8.15;;;20.80;99.90;;;;;;5034103;28;20056;-76
2021/08/13 06:57:24;;;;;;;9.52;7.70;;;20.90;99.90;;;;;;5049880;28;20054;-77
2021/08/13 06:59:52;;;;;;;8.43;7.15;;;20.90;99.90;;;;;;5068767;28;20043;-77
2021/08/13 07:02:18;;;;;;;10.98;8.63;;;20.90;99.90;;;;;;5074690;28;20055;-77
2021/08/13 07:04:46;;;;;;;9.15;6.70;;;21.00;99.90;;;;;;5085353;28;20565;-77
2021/08/13 07:07:21;;;;;;;7.40;6.60;;;21.00;99.90;;;;;;5064601;28;20031;-77
2021/08/13 07:09:47;;;;;;;8.02;6.07;;;21.10;99.90;;;;;;5070337;28;20024;-77
2021/08/13 07:12:18;;;;;;;7.75;6.50;;;21.20;99.90;;;;;;5086019;28;20028;-77
2021/08/13 07:14:47;;;;;;;7.18;6.47;;;21.30;99.90;;;;;;5067697;28;20050;-77
2021/08/13 07:17:14;;;;;;;10.13;6.95;;;21.40;99.90;;;;;;5068608;28;20047;-77
2021/08/13 07:19:41;;;;;;;8.93;6.45;;;21.50;99.90;;;;;;5051576;28;20043;-77
2021/08/13 07:22:08;;;;;;;10.50;7.13;;;21.60;99.90;;;;;;5051120;28;20066;-77
2021/08/13 07:24:37;;;;;;;10.45;7.78;;;21.80;99.90;;;;;;5087092;27;20038;-79
2021/08/13 07:27:07;;;;;;;10.35;6.90;;;21.90;99.90;;;;;;5086958;28;20043;-79
2021/08/13 07:29:35;;;;;;;8.45;5.93;;;22.00;99.90;;;;;;5051761;28;20056;-77
2021/08/13 07:32:03;;;;;;;8.10;6.43;;;22.00;99.90;;;;;;5071200;28;20040;-76
2021/08/13 07:34:31;;;;;;;7.63;6.13;;;22.00;99.80;;;;;;5068928;28;20031;-76
2021/08/13 07:37:01;;;;;;;7.78;5.13;;;22.00;99.80;;;;;;5035034;28;20051;-76
2021/08/13 07:39:30;;;;;;;9.13;6.78;;;21.90;99.80;;;;;;5051119;28;20051;-77
2021/08/13 07:41:59;;;;;;;9.35;7.70;;;21.90;99.80;;;;;;5084889;28;20372;-76
2021/08/13 07:44:26;;;;;;;8.68;7.13;;;22.00;99.70;;;;;;5051788;28;20031;-76
2021/08/13 07:46:53;;;;;;;7.80;6.35;;;22.00;99.50;;;;;;5084818;28;20039;-76
2021/08/13 07:49:20;;;;;;;8.95;7.22;;;22.00;99.50;;;;;;5083213;28;20494;-76
2021/08/13 07:51:47;;;;;;;9.50;7.20;;;22.10;99.50;;;;;;5086371;28;20466;-76
2021/08/13 07:54:17;;;;;;;8.98;6.80;;;22.20;99.40;;;;;;5056192;28;20406;-76
2021/08/13 07:56:43;;;;;;;10.25;7.38;;;22.30;99.20;;;;;;5083284;28;20027;-76
2021/08/13 07:59:10;;;;;;;8.77;6.82;;;22.40;99.00;;;;;;5069674;28;20051;-77
2021/08/13 08:01:37;;;;;;;9.48;7.72;;;22.60;98.90;;;;;;5073443;28;20035;-77
2021/08/13 08:04:03;;;;;;;9.45;7.18;;;22.70;98.60;;;;;;5093291;27;20039;-76
2021/08/13 08:06:31;;;;;;;9.00;7.68;;;22.70;98.50;;;;;;5110741;27;20035;-76
2021/08/13 08:08:57;;;;;;;8.13;7.25;;;22.60;98.50;;;;;;5108399;27;20512;-76
2021/08/13 08:11:24;;;;;;;7.75;6.68;;;22.50;98.60;;;;;;5074493;27;20481;-75
2021/08/13 08:13:50;;;;;;;9.88;7.25;;;22.40;98.60;;;;;;5072787;28;20027;-76
2021/08/13 08:16:16;;;;;;;9.82;6.78;;;22.40;98.70;;;;;;5072135;27;20051;-76
2021/08/13 08:18:43;;;;;;;9.77;6.82;;;22.40;99.00;;;;;;5072413;27;20047;-75
2021/08/13 08:21:09;;;;;;;9.40;6.78;;;22.50;98.80;;;;;;5108423;27;20058;-76
2021/08/13 08:23:35;;;;;;;9.30;7.13;;;22.80;98.60;;;;;;5111903;27;20039;-77
2021/08/13 08:26:03;;;;;;;9.20;6.75;;;23.00;98.40;;;;;;5070617;28;20044;-77
2021/08/13 08:28:30;;;;;;;9.27;6.68;;;23.40;98.10;;;;;;5088260;27;20057;-77
2021/08/13 08:30:56;;;;;;;8.38;7.45;;;23.70;97.80;;;;;;5107279;28;20034;-76
2021/08/13 08:33:22;;;;;;;8.27;5.30;;;23.90;96.80;;;;;;5088543;27;20043;-77
2021/08/13 08:35:49;;;;;;;9.32;6.90;;;23.90;96.50;;;;;;5087724;28;20040;-78
2021/08/13 08:38:15;;;;;;;9.10;6.82;;;23.90;96.40;;;;;;5070383;28;20418;-77
2021/08/13 08:40:42;;;;;;;6.93;5.30;;;23.90;96.30;;;;;;5088707;28;20050;-77
2021/08/13 08:43:09;;;;;;;12.75;6.00;;;23.80;96.30;;;;;;5093104;28;20870;-77
2021/08/13 08:45:38;;;;;;;6.85;5.22;;;23.90;96.30;;;;;;5056306;28;20062;-75
2021/08/13 08:48:07;;;;;;;4.93;4.03;;;24.00;96.00;;;;;;5116023;27;20035;-76
2021/08/13 08:50:36;;;;;;;5.20;3.83;;;24.10;96.00;;;;;;5112782;27;20027;-76
2021/08/13 08:53:07;;;;;;;5.22;3.47;;;24.30;95.70;;;;;;5111217;27;20392;-76
2021/08/13 08:55:34;;;;;;;5.85;3.00;;;24.40;95.50;;;;;;5090594;27;20035;-77
2021/08/13 08:58:02;;;;;;;6.60;3.40;;;24.60;95.30;;;;;;5078412;27;20051;-77
2021/08/13 09:00:28;;;;;;;6.00;3.90;;;24.70;94.90;;;;;;5111302;27;20038;-77
2021/08/13 09:02:55;;;;;;;4.53;3.03;;;24.90;94.40;;;;;;5110211;27;20039;-77
2021/08/13 09:05:22;;;;;;;5.85;2.80;;;24.80;94.10;;;;;;5075839;28;20043;-77
2021/08/13 09:07:48;;;;;;;4.88;3.35;;;24.90;94.10;;;;;;5055561;27;20044;-76
2021/08/13 09:10:14;;;;;;;6.70;4.70;;;24.90;93.80;;;;;;5110381;27;20039;-78
2021/08/13 09:12:41;;;;;;;5.97;4.40;;;24.90;93.90;;;;;;5094155;28;20407;-79
2021/08/13 09:15:27;;;;;;;6.50;5.35;;;24.90;94.00;;;;;;5073600;28;20930;-79
2021/08/13 09:18:23;;;;;;;6.65;4.43;;;25.00;93.80;;;;;;5071833;28;20521;-79
2021/08/13 09:20:55;;;;;;;4.45;3.40;;;25.00;93.70;;;;;;5067606;28;20051;-79
2021/08/13 09:23:33;;;;;;;;;;;25.10;93.90;;;;;;5072117;27;20945;-79
2021/08/13 09:26:05;;;;;;;5.50;3.60;;;25.40;93.80;;;;;;5072339;28;19915;-79
2021/08/13 09:28:54;;;;;;;5.28;3.75;;;25.60;93.60;;;;;;5073409;28;20050;-78
2021/08/13 09:31:37;;;;;;;7.13;4.47;;;25.80;93.20;;;;;;5073122;27;20058;-79
2021/08/13 09:34:08;;;;;;;7.40;4.38;;;25.90;92.80;;;;;;5088584;28;20465;-76
2021/08/13 09:36:37;;;;;;;5.60;4.03;;;25.90;92.50;;;;;;5088067;27;20035;-78
2021/08/13 09:39:11;;;;;;;4.93;3.40;;;26.00;92.50;;;;;;5104881;28;20030;-77
2021/08/13 09:42:10;;;;;;;5.05;3.38;;;26.00;91.80;;;;;;5089008;27;20038;-77
2021/08/13 09:44:38;;;;;;;5.70;3.10;;;25.90;91.80;;;;;;5051152;28;20040;-77
2021/08/13 09:47:10;;;;;;;4.85;2.75;;;25.90;91.80;;;;;;5087317;28;20035;-77
2021/08/13 09:49:39;;;;;;;3.05;2.35;;;25.80;91.20;;;;;;5086377;28;20611;-77
2021/08/13 09:52:14;;;;;;;4.05;2.90;;;25.80;91.00;;;;;;5072632;28;20041;-77
2021/08/13 09:54:48;;;;;;;5.70;2.60;;;26.00;90.80;;;;;;5071390;28;20035;-77
2021/08/13 09:57:16;;;;;;;6.30;2.95;;;26.10;90.60;;;;;;5086455;28;20382;-77
2021/08/13 10:00:04;;;;;;;5.05;2.42;;;26.10;90.20;;;;;;5069628;28;21307;-79
2021/08/13 10:02:44;;;;;;;4.70;2.75;;;26.20;90.10;;;;;;5088953;28;20870;-78
2021/08/13 10:05:23;;;;;;;3.55;2.97;;;26.30;88.90;;;;;;5085785;28;20038;-78
2021/08/13 10:08:00;;;;;;;4.05;2.42;;;26.20;88.60;;;;;;5085324;28;20028;-79
2021/08/13 10:10:35;;;;;;;5.07;2.33;;;26.20;88.80;;;;;;5070505;28;20035;-79
2021/08/13 10:13:06;;;;;;;4.07;3.20;;;26.30;88.60;;;;;;5072605;28;20023;-78
2021/08/13 10:15:39;;;;;;;4.38;2.88;;;26.30;87.50;;;;;;5085763;28;20047;-78
2021/08/13 10:18:14;;;;;;;5.05;2.95;;;26.40;87.10;;;;;;5084721;28;20031;-78
2021/08/13 10:20:45;;;;;;;4.65;2.88;;;26.50;86.10;;;;;;5086187;28;20569;-78
2021/08/13 10:23:13;;;;;;;3.25;2.40;;;26.60;85.30;;;;;;5054086;28;20047;-79
2021/08/13 10:25:41;;;;;;;6.40;3.22;;;26.70;84.60;;;;;;5087241;28;20036;-78
2021/08/13 10:28:08;;;;;;;4.40;2.75;;;26.90;83.20;;;;;;5051852;28;20051;-79
2021/08/13 10:30:41;;;;;;;5.10;3.53;;;26.90;81.10;;;;;;5067841;28;20054;-80
2021/08/13 10:33:09;;;;;;;4.35;2.90;;;26.80;79.40;;;;;;5051468;28;20036;-77
2021/08/13 10:35:45;;;;;;;7.45;3.53;;;26.80;79.40;;;;;;5050368;28;20039;-81
2021/08/13 10:38:13;;;;;;;7.13;3.13;;;26.80;78.90;;;;;;5068894;28;20046;-78
2021/08/13 10:40:42;;;;;;;4.32;2.88;;;26.80;78.80;;;;;;5038028;28;20031;-79
2021/08/13 10:43:11;;;;;;;7.90;4.15;;;26.90;79.40;;;;;;5055126;28;20413;-79
2021/08/13 10:45:40;;;;;;;8.55;3.53;;;27.20;78.10;;;;;;5085515;28;20047;-78
2021/08/13 10:48:16;;;;;;;7.18;4.50;;;27.20;77.50;;;;;;5084964;28;20386;-78
2021/08/13 10:50:43;;;;;;;7.03;4.28;;;27.40;77.90;;;;;;5086967;28;20039;-78
2021/08/13 10:53:30;;;;;;;8.38;3.72;;;27.50;77.50;;;;;;5099798;27;20035;-79
2021/08/13 10:55:59;;;;;;;6.43;3.88;;;27.50;76.40;;;;;;5069322;28;20044;-78
2021/08/13 10:58:40;;;;;;;7.00;4.05;;;27.30;76.80;;;;;;5084793;28;20032;-78
2021/08/13 11:01:12;;;;;;;9.02;3.60;;;27.40;77.40;;;;;;5070613;28;20044;-78
2021/08/13 11:03:54;;;;;;;8.38;3.60;;;27.80;76.80;;;;;;5084870;28;20378;-77
2021/08/13 11:06:36;;;;;;;4.28;3.13;;;28.00;75.70;;;;;;5050881;28;20122;-78
2021/08/13 11:09:08;;;;;;;6.72;3.30;;;28.10;74.30;;;;;;5089237;28;20517;-78
2021/08/13 11:11:53;;;;;;;6.03;3.10;;;28.10;73.90;;;;;;5070882;28;20028;-78
2021/08/13 11:14:25;;;;;;;5.20;2.90;;;28.10;74.00;;;;;;5076743;28;20058;-78
2021/08/13 11:16:55;;;;;;;3.60;2.53;;;28.20;74.10;;;;;;5057159;28;20486;-78
2021/08/13 11:19:23;;;;;;;6.55;3.13;;;28.20;73.90;;;;;;5090070;28;20436;-78
2021/08/13 11:21:56;;;;;;;4.53;2.38;;;28.20;73.70;;;;;;5069669;28;20051;-79
2021/08/13 11:24:45;;;;;;;4.70;2.40;;;28.10;73.20;;;;;;5069432;28;20055;-78
2021/08/13 11:27:14;;;;;;;4.13;2.28;;;28.20;73.30;;;;;;5068089;28;20052;-79
2021/08/13 11:29:43;;;;;;;4.63;2.22;;;28.30;71.60;;;;;;5085514;28;20582;-79
2021/08/13 11:32:34;;;;;;;5.85;2.78;;;28.40;70.50;;;;;;5103122;28;20525;-79
2021/08/13 11:35:07;;;;;;;4.13;1.73;;;28.40;68.30;;;;;;5068586;28;20039;-79
2021/08/13 11:37:50;;;;;;;3.65;1.90;;;28.40;68.90;;;;;;5084646;28;20032;-79
2021/08/13 11:40:20;;;;;;;5.13;2.05;;;28.30;68.60;;;;;;5053347;28;20062;-78
2021/08/13 11:42:55;;;;;;;3.70;2.17;;;28.30;68.70;;;;;;5068282;28;20039;-78
2021/08/13 11:45:37;;;;;;;4.63;1.90;;;28.10;69.20;;;;;;5042615;28;20663;-77
2021/08/13 11:48:06;;;;;;;4.65;1.77;;;28.10;69.40;;;;;;5051046;28;20051;-77
2021/08/13 11:50:34;;;;;;;2.83;1.40;;;28.20;70.00;;;;;;5085689;28;20533;-78
2021/08/13 11:53:01;;;;;;;4.22;1.58;;;28.70;69.50;;;;;;5052938;28;20044;-77
2021/08/13 11:55:31;;;;;;;4.40;1.70;;;28.70;68.70;;;;;;5054596;28;20387;-78
2021/08/13 11:58:00;;;;;;;3.85;1.60;;;28.60;68.20;;;;;;5067304;28;20036;-76
2021/08/13 12:00:32;;;;;;;5.65;3.08;;;28.30;69.00;;;;;;5072207;28;20036;-76
2021/08/13 12:03:04;;;;;;;4.13;1.98;;;28.20;69.30;;;;;;5092273;28;20370;-77
2021/08/13 12:05:41;;;;;;;4.25;1.35;;;28.30;69.20;;;;;;5106910;27;20027;-77
2021/08/13 12:08:16;;;;;;;3.83;1.70;;;28.40;67.10;;;;;;5049954;28;20388;-78
2021/08/13 12:10:51;;;;;;;3.20;1.63;;;28.50;66.70;;;;;;5068961;28;20046;-77
2021/08/13 12:13:22;;;;;;;4.40;2.05;;;28.80;66.80;;;;;;5086936;28;20028;-77
2021/08/13 12:15:49;;;;;;;2.45;1.42;;;29.00;64.90;;;;;;5033632;28;20048;-80
2021/08/13 12:18:29;;;;;;;3.25;1.40;;;29.20;63.20;;;;;;5068290;28;20040;-80
2021/08/13 12:21:02;;;;;;;3.60;1.65;;;29.40;62.80;;;;;;5068293;28;20035;-80
2021/08/13 12:23:29;;;;;;;3.97;1.50;;;29.60;62.70;;;;;;5069566;28;20055;-80
2021/08/13 12:26:03;;;;;;;3.63;1.20;;;30.10;62.10;;;;;;5084043;28;20064;-80
2021/08/13 12:28:32;;;;;;;4.72;1.30;;;30.50;61.20;;;;;;5050000;28;20055;-80
2021/08/13 12:31:08;;;;;;;3.25;1.10;;;30.70;60.70;;;;;;5086743;28;20479;-78
2021/08/13 12:33:37;;;;;;;3.20;1.20;;;30.70;60.20;;;;;;5087650;28;20035;-78
2021/08/13 12:36:14;;;;;;;3.25;1.30;;;30.50;59.50;;;;;;5074361;28;20058;-78
2021/08/13 12:38:43;;;;;;;4.82;0.80;;;30.10;60.00;;;;;;5082313;28;20038;-79
2021/08/13 12:41:11;;;;;;;2.13;0.90;;;29.80;58.20;;;;;;5050048;28;20047;-78
2021/08/13 12:43:38;;;;;;;2.65;0.88;;;29.50;56.40;;;;;;5054177;28;20046;-80
2021/08/13 12:46:04;;;;;;;2.97;0.90;;;29.20;56.30;;;;;;5071289;28;20494;-79
2021/08/13 12:48:31;;;;;;;3.67;1.10;;;29.10;56.10;;;;;;5054347;28;20498;-80
2021/08/13 12:51:00;;;;;;;2.33;1.02;;;29.10;56.50;;;;;;5073391;28;20491;-80
2021/08/13 12:53:38;;;;;;;3.58;0.80;;;29.10;56.00;;;;;;5071372;28;20036;-79
2021/08/13 12:56:19;;;;;;;3.03;1.00;;;29.60;56.60;;;;;;5071419;28;20042;-80
2021/08/13 12:59:11;;;;;;;4.22;0.98;;;30.00;55.10;;;;;;5089607;28;20385;-78
2021/08/13 13:01:39;;;;;;;2.60;0.70;;;30.00;54.10;;;;;;5070774;28;20377;-78